Time;durP1;ratioP1;P1;durP2;ratioP2;P2;SDS_P1;SDS_P2;PMS_P1;PMS_P2;Temp;Humidity;BMP_temperature;BMP_pressure;BME280_temperature;BME280_humidity;BME280_pressure;Samples;Min_cycle;Max_cycle;Signal;HPM_P1;HPM_P2
2022/09/10 00:00:04;;;;;;;;;;;;;;;;;;1018301;29;19914;-73
2022/09/10 00:00:35;;;;;;;;;;;;;;;;;;1018116;29;19910;-73
2022/09/10 00:01:05;;;;;;;;;;;;;;;;;;1018190;29;20335;-73
2022/09/10 00:01:35;;;;;;;;;;;;;;;;;;1018143;29;19969;-73
2022/09/10 00:02:06;;;;;;;;;;;;;;;;;;1018033;29;19947;-73
2022/09/10 00:02:38;;;;;;;;;;;;;;;;;;1018217;29;19919;-73
2022/09/10 00:03:08;;;;;;;;;;;;;;;;;;1018029;29;20525;-73
2022/09/10 00:03:38;;;;;;;;;;;;;;;;;;1018176;29;20410;-73
2022/09/10 00:04:09;;;;;;;;;;;;;;;;;;1018158;29;20006;-73
2022/09/10 00:04:39;;;;;;;;;;;;;;;;;;1017386;29;19917;-73
2022/09/10 00:05:11;;;;;;;;;;;;;;;;;;1015676;29;19946;-73
2022/09/10 00:05:41;;;;;;;;;;;;;;;;;;1019754;29;19917;-73
2022/09/10 00:06:12;;;;;;;;;;;;;;;;;;1019871;29;19917;-73
2022/09/10 00:06:42;;;;;;;;;;;;;;;;;;1021857;29;19950;-73
2022/09/10 00:07:12;;;;;;;;;;;;;;;;;;1021445;29;19917;-73
2022/09/10 00:07:43;;;;;;;;;;;;;;;;;;1018287;29;19911;-73
2022/09/10 00:08:13;;;;;;;;;;;;;;;;;;1019292;29;20014;-73
2022/09/10 00:08:43;;;;;;;;;;;;;;;;;;1018099;29;19911;-73
2022/09/10 00:09:14;;;;;;;;;;;;;;;;;;1018015;29;19958;-73
2022/09/10 00:09:44;;;;;;;;;;;;;;;;;;1018350;29;20791;-73
2022/09/10 00:10:14;;;;;;;;;;;;;;;;;;1018056;29;19927;-73
2022/09/10 00:10:45;;;;;;;;;;;;;;;;;;1017144;29;20021;-73
2022/09/10 00:11:15;;;;;;;;;;;;;;;;;;1018107;29;19917;-73
2022/09/10 00:11:46;;;;;;;;;;;;;;;;;;1018066;29;20058;-73
2022/09/10 00:12:16;;;;;;;;;;;;;;;;;;1018029;29;20050;-72
2022/09/10 00:12:47;;;;;;;;;;;;;;;;;;1018037;29;19915;-73
2022/09/10 00:13:17;;;;;;;;;;;;;;;;;;1018124;29;19937;-73
2022/09/10 00:13:48;;;;;;;;;;;;;;;;;;1019235;29;20354;-73
2022/09/10 00:14:18;;;;;;;;;;;;;;;;;;1018058;29;19911;-73
2022/09/10 00:14:50;;;;;;;;;;;;;;;;;;1018111;29;20260;-73
2022/09/10 00:15:20;;;;;;;;;;;;;;;;;;1018069;29;19915;-73
2022/09/10 00:15:51;;;;;;;;;;;;;;;;;;1020135;29;19914;-73
2022/09/10 00:16:21;;;;;;;;;;;;;;;;;;1021699;29;19915;-73
2022/09/10 00:16:51;;;;;;;;;;;;;;;;;;1021589;28;19910;-73
2022/09/10 00:17:23;;;;;;;;;;;;;;;;;;1021680;29;19944;-73
2022/09/10 00:17:53;;;;;;;;;;;;;;;;;;1021230;29;19949;-73
2022/09/10 00:18:23;;;;;;;;;;;;;;;;;;1021941;29;20011;-73
2022/09/10 00:18:53;;;;;;;;;;;;;;;;;;1020906;29;19914;-73
2022/09/10 00:19:24;;;;;;;;;;;;;;;;;;1019639;29;19915;-73
2022/09/10 00:19:54;;;;;;;;;;;;;;;;;;1019803;29;20426;-73
2022/09/10 00:20:25;;;;;;;;;;;;;;;;;;1018704;29;20383;-73
2022/09/10 00:20:56;;;;;;;;;;;;;;;;;;1021721;29;20687;-73
2022/09/10 00:21:26;;;;;;;;;;;;;;;;;;1021664;29;19958;-73
2022/09/10 00:21:56;;;;;;;;;;;;;;;;;;1021680;28;19917;-73
2022/09/10 00:22:27;;;;;;;;;;;;;;;;;;1022677;29;20001;-73
2022/09/10 00:22:57;;;;;;;;;;;;;;;;;;1021523;29;19922;-73
2022/09/10 00:23:27;;;;;;;;;;;;;;;;;;1021816;29;19910;-73
2022/09/10 00:23:58;;;;;;;;;;;;;;;;;;1022341;29;19950;-73
2022/09/10 00:24:28;;;;;;;;;;;;;;;;;;1017724;29;19911;-73
2022/09/10 00:24:58;;;;;;;;;;;;;;;;;;1017910;29;19911;-72
2022/09/10 00:25:28;;;;;;;;;;;;;;;;;;1018152;29;19911;-73
2022/09/10 00:25:59;;;;;;;;;;;;;;;;;;1018110;29;20390;-72
2022/09/10 00:26:29;;;;;;;;;;;;;;;;;;1018118;29;19911;-73
2022/09/10 00:26:59;;;;;;;;;;;;;;;;;;1017953;29;19915;-73
2022/09/10 00:27:30;;;;;;;;;;;;;;;;;;1017678;29;19911;-73
2022/09/10 00:28:01;;;;;;;;;;;;;;;;;;1018845;29;19911;-73
2022/09/10 00:28:31;;;;;;;;;;;;;;;;;;1018065;29;19930;-73
2022/09/10 00:29:01;;;;;;;;;;;;;;;;;;1018001;29;20002;-73
2022/09/10 00:29:32;;;;;;;;;;;;;;;;;;1018591;29;19914;-73
2022/09/10 00:30:02;;;;;;;;;;;;;;;;;;1018236;29;19915;-73
2022/09/10 00:30:33;;;;;;;;;;;;;;;;;;1018075;29;20140;-73
2022/09/10 00:31:03;;;;;;;;;;;;;;;;;;1018140;29;20005;-73
2022/09/10 00:31:33;;;;;;;;;;;;;;;;;;1018088;29;20375;-73
2022/09/10 00:32:03;;;;;;;;;;;;;;;;;;1018128;29;19911;-73
2022/09/10 00:32:34;;;;;;;;;;;;;;;;;;1019673;29;19914;-73
2022/09/10 00:33:04;;;;;;;;;;;;;;;;;;1021621;29;19970;-73
2022/09/10 00:33:34;;;;;;;;;;;;;;;;;;1021614;29;19917;-73
2022/09/10 00:34:05;;;;;;;;;;;;;;;;;;1021814;29;20499;-73
2022/09/10 00:34:35;;;;;;;;;;;;;;;;;;1020746;29;19918;-73
2022/09/10 00:35:05;;;;;;;;;;;;;;;;;;1020499;29;20359;-73
2022/09/10 00:35:36;;;;;;;;;;;;;;;;;;1019841;29;19974;-73
2022/09/10 00:36:06;;;;;;;;;;;;;;;;;;1019831;29;20366;-73
2022/09/10 00:36:37;;;;;;;;;;;;;;;;;;1018157;29;19915;-73
2022/09/10 00:37:07;;;;;;;;;;;;;;;;;;1019464;29;19910;-73
2022/09/10 00:37:37;;;;;;;;;;;;;;;;;;1021760;29;20282;-73
2022/09/10 00:38:08;;;;;;;;;;;;;;;;;;1021645;29;20397;-73
2022/09/10 00:38:38;;;;;;;;;;;;;;;;;;1021348;29;20002;-73
2022/09/10 00:39:09;;;;;;;;;;;;;;;;;;1021453;29;19915;-73
2022/09/10 00:39:39;;;;;;;;;;;;;;;;;;1019083;29;19950;-73
2022/09/10 00:40:10;;;;;;;;;;;;;;;;;;1017988;29;19911;-73
2022/09/10 00:40:40;;;;;;;;;;;;;;;;;;1017986;29;19918;-73
2022/09/10 00:41:11;;;;;;;;;;;;;;;;;;1019578;29;19911;-73
2022/09/10 00:41:41;;;;;;;;;;;;;;;;;;1019734;29;19947;-73
2022/09/10 00:42:11;;;;;;;;;;;;;;;;;;1019696;29;19914;-73
2022/09/10 00:42:45;;;;;;;;;;;;;;;;;;1019633;29;19958;-73
2022/09/10 00:43:15;;;;;;;;;;;;;;;;;;1018049;29;20297;-73
2022/09/10 00:43:45;;;;;;;;;;;;;;;;;;1018086;29;19917;-73
2022/09/10 00:44:16;;;;;;;;;;;;;;;;;;1018136;29;19915;-73
2022/09/10 00:44:46;;;;;;;;;;;;;;;;;;1017891;29;19918;-73
2022/09/10 00:45:17;;;;;;;;;;;;;;;;;;1018111;29;19922;-73
2022/09/10 00:45:47;;;;;;;;;;;;;;;;;;1021264;29;19914;-73
2022/09/10 00:46:17;;;;;;;;;;;;;;;;;;1021445;29;20311;-73
2022/09/10 00:46:48;;;;;;;;;;;;;;;;;;1021470;29;19977;-73
2022/09/10 00:47:19;;;;;;;;;;;;;;;;;;1020969;29;19910;-73
2022/09/10 00:47:49;;;;;;;;;;;;;;;;;;1018059;29;19911;-73
2022/09/10 00:48:20;;;;;;;;;;;;;;;;;;1018190;29;20005;-73
2022/09/10 00:48:51;;;;;;;;;;;;;;;;;;1017932;29;20400;-73
2022/09/10 00:49:21;;;;;;;;;;;;;;;;;;1020190;29;19965;-73
2022/09/10 00:49:51;;;;;;;;;;;;;;;;;;1021874;29;19941;-73
2022/09/10 00:50:22;;;;;;;;;;;;;;;;;;1021096;29;20439;-73
2022/09/10 00:50:53;;;;;;;;;;;;;;;;;;1021514;29;19914;-73
2022/09/10 00:51:25;;;;;;;;;;;;;;;;;;1018031;29;19915;-73
2022/09/10 00:51:55;;;;;;;;;;;;;;;;;;1017943;29;19958;-73
2022/09/10 00:52:26;;;;;;;;;;;;;;;;;;1019644;29;19911;-73
2022/09/10 00:52:56;;;;;;;;;;;;;;;;;;1020161;29;20181;-73
2022/09/10 00:53:27;;;;;;;;;;;;;;;;;;1020511;29;19911;-73
2022/09/10 00:53:57;;;;;;;;;;;;;;;;;;1020579;29;20419;-73
2022/09/10 00:54:27;;;;;;;;;;;;;;;;;;1018829;29;19910;-73
2022/09/10 00:54:58;;;;;;;;;;;;;;;;;;1021543;29;19915;-73
2022/09/10 00:55:30;;;;;;;;;;;;;;;;;;1022509;29;19910;-73
2022/09/10 00:56:04;;;;;;;;;;;;;;;;;;1022452;29;20083;-73
2022/09/10 00:56:34;;;;;;;;;;;;;;;;;;1023811;29;19914;-73
2022/09/10 00:57:04;;;;;;;;;;;;;;;;;;1022589;28;20330;-73
2022/09/10 00:57:34;;;;;;;;;;;;;;;;;;1024287;29;19969;-73
2022/09/10 00:58:05;;;;;;;;;;;;;;;;;;1024353;29;19997;-73
2022/09/10 00:58:35;;;;;;;;;;;;;;;;;;1021808;29;19911;-73
2022/09/10 00:59:05;;;;;;;;;;;;;;;;;;1022233;29;19911;-73
2022/09/10 00:59:35;;;;;;;;;;;;;;;;;;1022387;29;19965;-73
2022/09/10 01:00:06;;;;;;;;;;;;;;;;;;1022458;29;19914;-73
2022/09/10 01:00:37;;;;;;;;;;;;;;;;;;1023169;29;19917;-73
2022/09/10 01:01:07;;;;;;;;;;;;;;;;;;1024107;29;19917;-73
2022/09/10 01:01:37;;;;;;;;;;;;;;;;;;1024176;29;19911;-73
2022/09/10 01:02:08;;;;;;;;;;;;;;;;;;1024517;29;19914;-73
2022/09/10 01:02:38;;;;;;;;;;;;;;;;;;1024214;29;19918;-73
2022/09/10 01:03:10;;;;;;;;;;;;;;;;;;1022275;29;19917;-73
2022/09/10 01:03:40;;;;;;;;;;;;;;;;;;1018898;29;20058;-73
2022/09/10 01:04:10;;;;;;;;;;;;;;;;;;1018448;29;20024;-73
2022/09/10 01:04:41;;;;;;;;;;;;;;;;;;1018437;29;19954;-73
2022/09/10 01:05:11;;;;;;;;;;;;;;;;;;1018644;29;19933;-73
2022/09/10 01:05:41;;;;;;;;;;;;;;;;;;1022281;29;19910;-73
2022/09/10 01:06:12;;;;;;;;;;;;;;;;;;1022337;29;20314;-73
2022/09/10 01:06:44;;;;;;;;;;;;;;;;;;1023594;29;19911;-73
2022/09/10 01:07:14;;;;;;;;;;;;;;;;;;1024187;29;20022;-73
2022/09/10 01:07:45;;;;;;;;;;;;;;;;;;1022419;29;19917;-73
2022/09/10 01:08:15;;;;;;;;;;;;;;;;;;1024187;29;19910;-73
2022/09/10 01:08:45;;;;;;;;;;;;;;;;;;1024158;29;20287;-73
2022/09/10 01:09:16;;;;;;;;;;;;;;;;;;1024272;29;20452;-73
2022/09/10 01:09:46;;;;;;;;;;;;;;;;;;1024334;29;19918;-73
2022/09/10 01:10:17;;;;;;;;;;;;;;;;;;1022391;29;19922;-73
2022/09/10 01:10:47;;;;;;;;;;;;;;;;;;1018395;29;19949;-73
2022/09/10 01:11:17;;;;;;;;;;;;;;;;;;1017852;29;19960;-73
2022/09/10 01:11:47;;;;;;;;;;;;;;;;;;1018596;29;19910;-73
2022/09/10 01:12:18;;;;;;;;;;;;;;;;;;1018746;29;19911;-73
2022/09/10 01:12:49;;;;;;;;;;;;;;;;;;1018588;29;20006;-73
2022/09/10 01:13:20;;;;;;;;;;;;;;;;;;1018671;29;19946;-73
2022/09/10 01:13:51;;;;;;;;;;;;;;;;;;1021758;29;19922;-73
2022/09/10 01:14:21;;;;;;;;;;;;;;;;;;1021734;29;20481;-73
2022/09/10 01:14:51;;;;;;;;;;;;;;;;;;1022086;29;19957;-73
2022/09/10 01:15:21;;;;;;;;;;;;;;;;;;1021929;29;19915;-73
2022/09/10 01:15:52;;;;;;;;;;;;;;;;;;1020981;29;19962;-73
2022/09/10 01:16:22;;;;;;;;;;;;;;;;;;1020906;29;19911;-73
2022/09/10 01:16:52;;;;;;;;;;;;;;;;;;1022312;28;19927;-73
2022/09/10 01:17:23;;;;;;;;;;;;;;;;;;1021781;29;19915;-72
2022/09/10 01:17:53;;;;;;;;;;;;;;;;;;1018019;29;19980;-73
2022/09/10 01:18:24;;;;;;;;;;;;;;;;;;1021792;29;19938;-73
2022/09/10 01:18:55;;;;;;;;;;;;;;;;;;1021609;29;19997;-73
2022/09/10 01:19:25;;;;;;;;;;;;;;;;;;1022325;29;19911;-73
2022/09/10 01:19:55;;;;;;;;;;;;;;;;;;1022608;29;19968;-73
2022/09/10 01:20:25;;;;;;;;;;;;;;;;;;1017062;29;19997;-73
2022/09/10 01:20:56;;;;;;;;;;;;;;;;;;1018313;29;19982;-73
2022/09/10 01:21:26;;;;;;;;;;;;;;;;;;1018872;29;19921;-73
2022/09/10 01:21:56;;;;;;;;;;;;;;;;;;1018675;29;19911;-73
2022/09/10 01:22:27;;;;;;;;;;;;;;;;;;1017659;29;19915;-73
2022/09/10 01:22:58;;;;;;;;;;;;;;;;;;1022003;29;19915;-74
2022/09/10 01:23:30;;;;;;;;;;;;;;;;;;1023439;29;19910;-74
2022/09/10 01:24:00;;;;;;;;;;;;;;;;;;1020649;29;19911;-74
2022/09/10 01:24:31;;;;;;;;;;;;;;;;;;1023394;29;19910;-74
2022/09/10 01:25:02;;;;;;;;;;;;;;;;;;1021662;29;19915;-74
2022/09/10 01:25:32;;;;;;;;;;;;;;;;;;1018089;29;19918;-74
2022/09/10 01:26:02;;;;;;;;;;;;;;;;;;1018175;29;19941;-74
2022/09/10 01:26:33;;;;;;;;;;;;;;;;;;1018630;29;20076;-74
2022/09/10 01:27:03;;;;;;;;;;;;;;;;;;1017908;29;19911;-74
2022/09/10 01:27:33;;;;;;;;;;;;;;;;;;1018074;29;20002;-74
2022/09/10 01:28:03;;;;;;;;;;;;;;;;;;1021399;29;19942;-74
2022/09/10 01:28:34;;;;;;;;;;;;;;;;;;1021908;29;19911;-74
2022/09/10 01:29:04;;;;;;;;;;;;;;;;;;1021710;29;20367;-74
2022/09/10 01:29:34;;;;;;;;;;;;;;;;;;1021310;29;20343;-74
2022/09/10 01:30:05;;;;;;;;;;;;;;;;;;1021109;29;19946;-74
2022/09/10 01:30:36;;;;;;;;;;;;;;;;;;1022182;29;20028;-74
2022/09/10 01:31:06;;;;;;;;;;;;;;;;;;1020985;29;19923;-74
2022/09/10 01:31:36;;;;;;;;;;;;;;;;;;1022824;29;20038;-74
2022/09/10 01:32:07;;;;;;;;;;;;;;;;;;1021640;28;20426;-74
2022/09/10 01:32:37;;;;;;;;;;;;;;;;;;1021709;29;19906;-74
2022/09/10 01:33:07;;;;;;;;;;;;;;;;;;1021347;29;19914;-74
2022/09/10 01:33:38;;;;;;;;;;;;;;;;;;1021914;29;19914;-74
2022/09/10 01:34:08;;;;;;;;;;;;;;;;;;1021677;29;19938;-74
2022/09/10 01:34:40;;;;;;;;;;;;;;;;;;1018229;29;20007;-74
2022/09/10 01:35:13;;;;;;;;;;;;;;;;;;1017461;29;19911;-74
2022/09/10 01:35:43;;;;;;;;;;;;;;;;;;1018294;29;20267;-74
2022/09/10 01:36:14;;;;;;;;;;;;;;;;;;1017369;29;19926;-74
2022/09/10 01:36:44;;;;;;;;;;;;;;;;;;1018757;29;19935;-74
2022/09/10 01:37:15;;;;;;;;;;;;;;;;;;1018527;29;19914;-75
2022/09/10 01:37:45;;;;;;;;;;;;;;;;;;1020109;29;19911;-74
2022/09/10 01:38:15;;;;;;;;;;;;;;;;;;1019877;29;20391;-74
2022/09/10 01:38:46;;;;;;;;;;;;;;;;;;1021949;29;19973;-74
2022/09/10 01:39:16;;;;;;;;;;;;;;;;;;1022720;29;19915;-74
2022/09/10 01:39:46;;;;;;;;;;;;;;;;;;1020824;29;19915;-74
2022/09/10 01:40:16;;;;;;;;;;;;;;;;;;1022336;29;19938;-74
2022/09/10 01:40:47;;;;;;;;;;;;;;;;;;1023767;29;19941;-74
2022/09/10 01:41:17;;;;;;;;;;;;;;;;;;1024474;29;19921;-74
2022/09/10 01:41:48;;;;;;;;;;;;;;;;;;1022388;29;19933;-74
2022/09/10 01:42:18;;;;;;;;;;;;;;;;;;1022138;29;19910;-74
2022/09/10 01:42:48;;;;;;;;;;;;;;;;;;1018682;29;19915;-74
2022/09/10 01:43:18;;;;;;;;;;;;;;;;;;1022401;29;19911;-75
2022/09/10 01:43:49;;;;;;;;;;;;;;;;;;1022199;29;19973;-74
2022/09/10 01:44:19;;;;;;;;;;;;;;;;;;1023755;29;19911;-74
2022/09/10 01:44:49;;;;;;;;;;;;;;;;;;1023867;29;20476;-74
2022/09/10 01:45:20;;;;;;;;;;;;;;;;;;1023541;29;20014;-74
2022/09/10 01:45:50;;;;;;;;;;;;;;;;;;1021651;29;19953;-74
2022/09/10 01:46:20;;;;;;;;;;;;;;;;;;1020022;29;19922;-74
2022/09/10 01:46:51;;;;;;;;;;;;;;;;;;1020255;29;20025;-74
2022/09/10 01:47:21;;;;;;;;;;;;;;;;;;1020518;29;19992;-74
2022/09/10 01:47:51;;;;;;;;;;;;;;;;;;1021038;29;19919;-74
2022/09/10 01:48:21;;;;;;;;;;;;;;;;;;1020875;29;19996;-74
2022/09/10 01:48:54;;;;;;;;;;;;;;;;;;1023559;29;20445;-74
2022/09/10 01:49:24;;;;;;;;;;;;;;;;;;1023479;29;19914;-74
2022/09/10 01:49:56;;;;;;;;;;;;;;;;;;1023846;29;20009;-74
2022/09/10 01:50:27;;;;;;;;;;;;;;;;;;1023449;29;20354;-74
2022/09/10 01:50:57;;;;;;;;;;;;;;;;;;1021518;29;19917;-74
2022/09/10 01:51:28;;;;;;;;;;;;;;;;;;1021740;29;19911;-74
2022/09/10 01:51:58;;;;;;;;;;;;;;;;;;1019010;29;20417;-74
2022/09/10 01:52:29;;;;;;;;;;;;;;;;;;1018870;29;19910;-74
2022/09/10 01:52:59;;;;;;;;;;;;;;;;;;1018486;29;19911;-74
2022/09/10 01:53:29;;;;;;;;;;;;;;;;;;1018440;29;19962;-74
2022/09/10 01:54:00;;;;;;;;;;;;;;;;;;1020581;29;20341;-74
2022/09/10 01:54:32;;;;;;;;;;;;;;;;;;1022459;29;19910;-74
2022/09/10 01:55:02;;;;;;;;;;;;;;;;;;1021022;29;19914;-74
2022/09/10 01:55:33;;;;;;;;;;;;;;;;;;1024303;29;20002;-74
2022/09/10 01:56:03;;;;;;;;;;;;;;;;;;1021709;29;19911;-74
2022/09/10 01:56:34;;;;;;;;;;;;;;;;;;1021694;29;20359;-74
2022/09/10 01:57:05;;;;;;;;;;;;;;;;;;1023550;29;19915;-74
2022/09/10 01:57:35;;;;;;;;;;;;;;;;;;1022844;29;19921;-74
2022/09/10 01:58:05;;;;;;;;;;;;;;;;;;1023539;29;20005;-74
2022/09/10 01:58:36;;;;;;;;;;;;;;;;;;1024307;29;19910;-74
2022/09/10 01:59:06;;;;;;;;;;;;;;;;;;1021373;29;19922;-74
2022/09/10 01:59:36;;;;;;;;;;;;;;;;;;1018537;29;19914;-74
2022/09/10 02:00:08;;;;;;;;;;;;;;;;;;1016476;29;19975;-74
2022/09/10 02:00:41;;;;;;;;;;;;;;;;;;1020215;29;19997;-74
2022/09/10 02:01:12;;;;;;;;;;;;;;;;;;1022495;29;19911;-74
2022/09/10 02:01:43;;;;;;;;;;;;;;;;;;1022060;28;19949;-74
2022/09/10 02:02:13;;;;;;;;;;;;;;;;;;1022868;28;19934;-74
2022/09/10 02:02:44;;;;;;;;;;;;;;;;;;1023139;29;20390;-74
2022/09/10 02:03:15;;;;;;;;;;;;;;;;;;1022593;29;19911;-74
2022/09/10 02:03:46;;;;;;;;;;;;;;;;;;1024656;29;20306;-74
2022/09/10 02:04:17;;;;;;;;;;;;;;;;;;1021745;28;20060;-74
2022/09/10 02:04:49;;;;;;;;;;;;;;;;;;1023311;29;19919;-74
2022/09/10 02:05:19;;;;;;;;;;;;;;;;;;1023774;29;19910;-74
2022/09/10 02:05:49;;;;;;;;;;;;;;;;;;1020665;29;19974;-74
2022/09/10 02:06:20;;;;;;;;;;;;;;;;;;1024561;29;19910;-74
2022/09/10 02:06:50;;;;;;;;;;;;;;;;;;1023468;29;20001;-73
2022/09/10 02:07:21;;;;;;;;;;;;;;;;;;1017903;29;20332;-73
2022/09/10 02:07:51;;;;;;;;;;;;;;;;;;1018527;29;20323;-73
2022/09/10 02:08:22;;;;;;;;;;;;;;;;;;1018412;29;19911;-73
2022/09/10 02:08:53;;;;;;;;;;;;;;;;;;1020443;29;20279;-73
2022/09/10 02:09:23;;;;;;;;;;;;;;;;;;1022342;29;19922;-73
2022/09/10 02:09:53;;;;;;;;;;;;;;;;;;1021630;29;19946;-73
2022/09/10 02:10:24;;;;;;;;;;;;;;;;;;1022381;29;19911;-73
2022/09/10 02:10:54;;;;;;;;;;;;;;;;;;1021302;29;19914;-75
2022/09/10 02:11:24;;;;;;;;;;;;;;;;;;1008741;29;20396;-74
2022/09/10 02:11:55;;;;;;;;;;;;;;;;;;1018215;29;20480;-74
2022/09/10 02:12:25;;;;;;;;;;;;;;;;;;1017901;29;20089;-72
2022/09/10 02:12:55;;;;;;;;;;;;;;;;;;1017934;29;19915;-74
2022/09/10 02:13:26;;;;;;;;;;;;;;;;;;1017576;29;19915;-75
2022/09/10 02:13:59;;;;;;;;;;;;;;;;;;1020229;29;20422;-75
2022/09/10 02:14:29;;;;;;;;;;;;;;;;;;1020511;29;19911;-72
2022/09/10 02:14:59;;;;;;;;;;;;;;;;;;1020997;29;19935;-72
2022/09/10 02:15:31;;;;;;;;;;;;;;;;;;1021126;29;20259;-73
2022/09/10 02:16:02;;;;;;;;;;;;;;;;;;1018868;29;19917;-73
2022/09/10 02:16:32;;;;;;;;;;;;;;;;;;1019152;29;19921;-73
2022/09/10 02:17:02;;;;;;;;;;;;;;;;;;1018082;29;19954;-73
2022/09/10 02:17:32;;;;;;;;;;;;;;;;;;1015585;29;19911;-73
2022/09/10 02:18:03;;;;;;;;;;;;;;;;;;1018482;29;20006;-73
2022/09/10 02:18:33;;;;;;;;;;;;;;;;;;1017765;29;19921;-73
2022/09/10 02:19:03;;;;;;;;;;;;;;;;;;1018252;29;20504;-73
2022/09/10 02:19:34;;;;;;;;;;;;;;;;;;1019504;29;19921;-73
2022/09/10 02:20:04;;;;;;;;;;;;;;;;;;1018816;29;19918;-73
2022/09/10 02:20:34;;;;;;;;;;;;;;;;;;1018105;29;20327;-73
2022/09/10 02:21:05;;;;;;;;;;;;;;;;;;1018490;29;19962;-73
2022/09/10 02:21:35;;;;;;;;;;;;;;;;;;1017284;29;20001;-73
2022/09/10 02:22:05;;;;;;;;;;;;;;;;;;1017927;29;19951;-73
2022/09/10 02:22:36;;;;;;;;;;;;;;;;;;1016875;29;19961;-75
2022/09/10 02:23:06;;;;;;;;;;;;;;;;;;1018181;29;19914;-73
2022/09/10 02:23:37;;;;;;;;;;;;;;;;;;1019454;29;19994;-73
2022/09/10 02:24:08;;;;;;;;;;;;;;;;;;1017863;29;19911;-73
2022/09/10 02:24:38;;;;;;;;;;;;;;;;;;1019251;29;19933;-73
2022/09/10 02:25:08;;;;;;;;;;;;;;;;;;1017441;29;19954;-73
2022/09/10 02:25:39;;;;;;;;;;;;;;;;;;1017736;29;19911;-73
2022/09/10 02:26:09;;;;;;;;;;;;;;;;;;1018448;29;19911;-73
2022/09/10 02:26:39;;;;;;;;;;;;;;;;;;1018596;29;20009;-73
2022/09/10 02:27:10;;;;;;;;;;;;;;;;;;1021360;28;19911;-73
2022/09/10 02:27:42;;;;;;;;;;;;;;;;;;1020271;29;19911;-74
2022/09/10 02:28:13;;;;;;;;;;;;;;;;;;1021477;29;19966;-73
2022/09/10 02:28:43;;;;;;;;;;;;;;;;;;1023183;29;19910;-73
2022/09/10 02:29:13;;;;;;;;;;;;;;;;;;1022295;29;20044;-73
2022/09/10 02:29:44;;;;;;;;;;;;;;;;;;1022373;29;20248;-75
2022/09/10 02:30:15;;;;;;;;;;;;;;;;;;1016966;29;19917;-73
2022/09/10 02:30:47;;;;;;;;;;;;;;;;;;1019150;29;20382;-73
2022/09/10 02:31:20;;;;;;;;;;;;;;;;;;1021664;29;19942;-73
2022/09/10 02:31:50;;;;;;;;;;;;;;;;;;1021729;28;19914;-73
2022/09/10 02:32:20;;;;;;;;;;;;;;;;;;1021786;29;19911;-73
2022/09/10 02:32:51;;;;;;;;;;;;;;;;;;1021191;29;20005;-73
2022/09/10 02:33:21;;;;;;;;;;;;;;;;;;1018751;29;19915;-73
2022/09/10 02:33:53;;;;;;;;;;;;;;;;;;1017735;29;19911;-73
2022/09/10 02:34:23;;;;;;;;;;;;;;;;;;1017899;29;19971;-73
2022/09/10 02:34:54;;;;;;;;;;;;;;;;;;1018263;29;20007;-73
2022/09/10 02:35:24;;;;;;;;;;;;;;;;;;1018878;29;19911;-73
2022/09/10 02:35:54;;;;;;;;;;;;;;;;;;1018283;29;19911;-73
2022/09/10 02:36:25;;;;;;;;;;;;;;;;;;1018516;29;19934;-73
2022/09/10 02:36:56;;;;;;;;;;;;;;;;;;1017683;29;19915;-73
2022/09/10 02:37:27;;;;;;;;;;;;;;;;;;1019837;29;19921;-73
2022/09/10 02:37:57;;;;;;;;;;;;;;;;;;1018981;29;19918;-73
2022/09/10 02:38:30;;;;;;;;;;;;;;;;;;1020050;29;19911;-73
2022/09/10 02:39:04;;;;;;;;;;;;;;;;;;1020468;29;20057;-74
2022/09/10 02:39:34;;;;;;;;;;;;;;;;;;1020300;29;19934;-74
2022/09/10 02:40:05;;;;;;;;;;;;;;;;;;1016495;29;20394;-74
2022/09/10 02:40:35;;;;;;;;;;;;;;;;;;1019563;29;19914;-74
2022/09/10 02:41:08;;;;;;;;;;;;;;;;;;1019307;29;19930;-74
2022/09/10 02:41:39;;;;;;;;;;;;;;;;;;1020546;29;20006;-74
2022/09/10 02:42:11;;;;;;;;;;;;;;;;;;1022341;28;19910;-74
2022/09/10 02:42:45;;;;;;;;;;;;;;;;;;1020015;29;19919;-74
2022/09/10 02:43:16;;;;;;;;;;;;;;;;;;1018572;29;19938;-74
2022/09/10 02:43:46;;;;;;;;;;;;;;;;;;1020983;29;20017;-74
2022/09/10 02:44:17;;;;;;;;;;;;;;;;;;1020027;29;20009;-74
2022/09/10 02:44:48;;;;;;;;;;;;;;;;;;1023669;29;19910;-74
2022/09/10 02:45:19;;;;;;;;;;;;;;;;;;1024812;29;20355;-74
2022/09/10 02:45:49;;;;;;;;;;;;;;;;;;1022947;29;20032;-73
2022/09/10 02:46:20;;;;;;;;;;;;;;;;;;1023162;29;20006;-73
2022/09/10 02:46:50;;;;;;;;;;;;;;;;;;1019721;29;20017;-73
2022/09/10 02:47:21;;;;;;;;;;;;;;;;;;1020712;29;19914;-73
2022/09/10 02:47:52;;;;;;;;;;;;;;;;;;1021539;29;20474;-73
2022/09/10 02:48:22;;;;;;;;;;;;;;;;;;1021004;29;19911;-73
2022/09/10 02:48:54;;;;;;;;;;;;;;;;;;1021502;29;19917;-73
2022/09/10 02:49:24;;;;;;;;;;;;;;;;;;1022500;29;19918;-74
2022/09/10 02:49:54;;;;;;;;;;;;;;;;;;1020876;29;19910;-73
2022/09/10 02:50:25;;;;;;;;;;;;;;;;;;1021582;29;19976;-74
2022/09/10 02:50:55;;;;;;;;;;;;;;;;;;1021702;29;19921;-74
2022/09/10 02:51:26;;;;;;;;;;;;;;;;;;1022401;29;19925;-74
2022/09/10 02:51:56;;;;;;;;;;;;;;;;;;1023588;29;19917;-74
2022/09/10 02:52:27;;;;;;;;;;;;;;;;;;1022081;29;20044;-74
2022/09/10 02:52:59;;;;;;;;;;;;;;;;;;1022129;29;19914;-73
2022/09/10 02:53:30;;;;;;;;;;;;;;;;;;1022276;29;19970;-73
2022/09/10 02:54:00;;;;;;;;;;;;;;;;;;1016323;29;19914;-74
2022/09/10 02:54:31;;;;;;;;;;;;;;;;;;1016312;29;19915;-75
2022/09/10 02:55:01;;;;;;;;;;;;;;;;;;1017710;29;19915;-74
2022/09/10 02:55:32;;;;;;;;;;;;;;;;;;1017906;29;20304;-73
2022/09/10 02:56:02;;;;;;;;;;;;;;;;;;1019985;29;19911;-74
2022/09/10 02:56:35;;;;;;;;;;;;;;;;;;1019538;29;19914;-73
2022/09/10 02:57:08;;;;;;;;;;;;;;;;;;1021709;28;20411;-75
2022/09/10 02:57:38;;;;;;;;;;;;;;;;;;1022826;29;19915;-75
2022/09/10 02:58:09;;;;;;;;;;;;;;;;;;1020976;29;19915;-75
2022/09/10 02:58:39;;;;;;;;;;;;;;;;;;1021963;29;19910;-75
2022/09/10 02:59:13;;;;;;;;;;;;;;;;;;1021425;29;19962;-74
2022/09/10 02:59:43;;;;;;;;;;;;;;;;;;1023365;29;19910;-75
2022/09/10 03:00:14;;;;;;;;;;;;;;;;;;1021020;29;19911;-73
2022/09/10 03:00:46;;;;;;;;;;;;;;;;;;1022648;29;19946;-74
2022/09/10 03:01:18;;;;;;;;;;;;;;;;;;1024293;29;19910;-74
2022/09/10 03:01:53;;;;;;;;;;;;;;;;;;1016924;29;19917;-77
2022/09/10 03:02:24;;;;;;;;;;;;;;;;;;1020811;29;19986;-76
2022/09/10 03:02:55;;;;;;;;;;;;;;;;;;1016488;29;20637;-75
2022/09/10 03:03:27;;;;;;;;;;;;;;;;;;1015309;29;19946;-75
2022/09/10 03:03:58;;;;;;;;;;;;;;;;;;1018265;29;20328;-74
2022/09/10 03:04:28;;;;;;;;;;;;;;;;;;1017238;29;19922;-74
2022/09/10 03:04:58;;;;;;;;;;;;;;;;;;1016037;29;20394;-74
2022/09/10 03:05:28;;;;;;;;;;;;;;;;;;1016930;29;19938;-74
2022/09/10 03:06:02;;;;;;;;;;;;;;;;;;1017848;29;20291;-74
2022/09/10 03:06:32;;;;;;;;;;;;;;;;;;1017835;29;19911;-74
2022/09/10 03:07:02;;;;;;;;;;;;;;;;;;1017820;29;19998;-74
2022/09/10 03:07:33;;;;;;;;;;;;;;;;;;1019347;29;19939;-74
2022/09/10 03:08:03;;;;;;;;;;;;;;;;;;1019386;29;19950;-74
2022/09/10 03:08:33;;;;;;;;;;;;;;;;;;1019264;29;20310;-74
2022/09/10 03:09:04;;;;;;;;;;;;;;;;;;1018482;29;20396;-76
2022/09/10 03:09:34;;;;;;;;;;;;;;;;;;1018540;29;20014;-74
2022/09/10 03:10:04;;;;;;;;;;;;;;;;;;1021720;29;19910;-78
2022/09/10 03:10:39;;;;;;;;;;;;;;;;;;1021550;29;20307;-75
2022/09/10 03:11:13;;;;;;;;;;;;;;;;;;1020944;29;19934;-75
2022/09/10 03:11:45;;;;;;;;;;;;;;;;;;1020493;29;19914;-75
2022/09/10 03:12:15;;;;;;;;;;;;;;;;;;1017784;29;19977;-75
2022/09/10 03:12:46;;;;;;;;;;;;;;;;;;1019099;29;21654;-75
2022/09/10 03:13:17;;;;;;;;;;;;;;;;;;1022872;29;20779;-75
2022/09/10 03:13:47;;;;;;;;;;;;;;;;;;1022422;29;20437;-75
2022/09/10 03:14:21;;;;;;;;;;;;;;;;;;1021440;29;20355;-74
2022/09/10 03:14:52;;;;;;;;;;;;;;;;;;1022915;29;19915;-74
2022/09/10 03:15:22;;;;;;;;;;;;;;;;;;1023172;29;19940;-74
2022/09/10 03:15:53;;;;;;;;;;;;;;;;;;1022423;29;19911;-74
2022/09/10 03:16:23;;;;;;;;;;;;;;;;;;1018082;29;20550;-75
2022/09/10 03:16:55;;;;;;;;;;;;;;;;;;1022180;28;20367;-75
2022/09/10 03:17:26;;;;;;;;;;;;;;;;;;1020786;29;19958;-75
2022/09/10 03:17:57;;;;;;;;;;;;;;;;;;1021082;29;20011;-75
2022/09/10 03:18:27;;;;;;;;;;;;;;;;;;1017928;29;20284;-75
2022/09/10 03:18:57;;;;;;;;;;;;;;;;;;1018685;29;19915;-75
2022/09/10 03:19:28;;;;;;;;;;;;;;;;;;1018521;29;20479;-75
2022/09/10 03:19:58;;;;;;;;;;;;;;;;;;1019125;29;20031;-75
2022/09/10 03:20:30;;;;;;;;;;;;;;;;;;1019153;29;20389;-75
2022/09/10 03:21:00;;;;;;;;;;;;;;;;;;1016732;29;20236;-75
2022/09/10 03:21:32;;;;;;;;;;;;;;;;;;1018758;29;19962;-74
2022/09/10 03:22:03;;;;;;;;;;;;;;;;;;1022590;29;19910;-74
2022/09/10 03:22:33;;;;;;;;;;;;;;;;;;1022160;29;20468;-73
2022/09/10 03:23:03;;;;;;;;;;;;;;;;;;1023895;29;19965;-73
2022/09/10 03:23:34;;;;;;;;;;;;;;;;;;1023505;29;19957;-73
2022/09/10 03:24:04;;;;;;;;;;;;;;;;;;1022906;29;19957;-73
2022/09/10 03:24:35;;;;;;;;;;;;;;;;;;1019958;29;19914;-75
2022/09/10 03:25:05;;;;;;;;;;;;;;;;;;1016415;29;20474;-75
2022/09/10 03:25:35;;;;;;;;;;;;;;;;;;1020603;29;19914;-75
2022/09/10 03:26:06;;;;;;;;;;;;;;;;;;1020683;29;19911;-74
2022/09/10 03:26:36;;;;;;;;;;;;;;;;;;1021989;29;20179;-74
2022/09/10 03:27:07;;;;;;;;;;;;;;;;;;1024761;29;19914;-74
2022/09/10 03:27:37;;;;;;;;;;;;;;;;;;1019347;29;19911;-74
2022/09/10 03:28:09;;;;;;;;;;;;;;;;;;1019700;29;19955;-75
2022/09/10 03:28:39;;;;;;;;;;;;;;;;;;1020021;29;19914;-75
2022/09/10 03:29:10;;;;;;;;;;;;;;;;;;1021884;29;19911;-74